Mendes, Brazil
Current Conditions -  °F | °C
As of 2:00 PM on Friday 21 Nov 2014 (Local Time) from SBSC Reporting Station
Clear Clear  
Wind Chill: 84°   Ceiling: Unl
Heat Index: 84°   Visibility: 6mi
Dew Point: 61°   Wind: 14mph
Humidity: 45%   Direction: 240°WSW
Pressure: 29.88"   Gusts: NA
Location:  22.53°S, 43.73°W
Report Text: SBSC 211600Z 24012KT CAVOK 29/16 Q1012
Loading
Personal Weather Stations






























Interactive Weather Map New forecast layout! Learn more

10-Day Weather Forecast

Advertisements
Track Severe Weather on mobile